Hellier, Kentucky
Current Conditions -  °F | °C
As of 8:55 AM on Monday 22 Dec 2014 (Local Time) from KPBX Reporting Station
Overcast Overcast  
Wind Chill:   Ceiling: 3800
Heat Index:   Visibility: 10mi
Dew Point:   Wind: 5mph
Humidity: 79%   Direction: 110°ESE
Pressure: 30.03"   Gusts: NA
Location:  37.29°N, 82.47°W
Report Text: KPBX 221355Z AUTO 11004KT 10SM OVC038 04/01 A3003 RMK AO2 T00410008
Loading
Personal Weather Stations






























Interactive Weather Map New forecast layout! Learn more

10-Day Weather Forecast

Advertisements
Track Severe Weather on mobile